Broxton, Georgia
Current Conditions -  °F | °C
As of 1:15 AM on Monday 22 Dec 2014 (Local Time) from KDQH Reporting Station
Haze Haze  
Wind Chill: 50°   Ceiling: 200
Heat Index: 50°   Visibility: 5mi
Dew Point: 50°   Wind: 7mph
Humidity: 100%   Direction: 70°ENE
Pressure: 30.03"   Gusts: NA
Location:  31.63°N, 82.89°W
Report Text: KDQH 220615Z AUTO 07006KT 5SM BR OVC002 10/10 A3003 RMK AO2
Loading
Personal Weather Stations






























Interactive Weather Map New forecast layout! Learn more

10-Day Weather Forecast

Advertisements
Track Severe Weather on mobile